Time;durP1;ratioP1;P1;durP2;ratioP2;P2;SDS_P1;SDS_P2;PMS_P1;PMS_P2;Temp;Humidity;BMP_temperature;BMP_pressure;BME280_temperature;BME280_humidity;BME280_pressure;Samples;Min_cycle;Max_cycle;Signal;HPM_P1;HPM_P2
2023/05/12 00:00:42;;;;;;;;;;;;;;;13.45;95.44;101588.41;5059421;28;21853;-61
2023/05/12 00:03:07;;;;;;;;;;;;;;;13.41;95.36;101587.94;5056645;28;19925;-62
2023/05/12 00:05:33;;;;;;;;;;;;;;;13.37;95.30;101583.94;5065951;28;20058;-63
2023/05/12 00:07:58;;;;;;;;;;;;;;;13.35;95.32;101591.28;5063356;28;19916;-62
2023/05/12 00:10:25;;;;;;;;;;;;;;;13.33;95.32;101593.28;5063023;28;20417;-61
2023/05/12 00:12:50;;;;;;;;;;;;;;;13.29;95.32;101587.44;5062512;28;20021;-61
2023/05/12 00:15:17;;;;;;;;;;;;;;;13.27;95.52;101594.78;5063013;28;19987;-61
2023/05/12 00:17:43;;;;;;;;;;;;;;;13.25;95.09;101590.63;5061963;28;19923;-61
2023/05/12 00:20:10;;;;;;;;;;;;;;;13.21;95.29;101583.97;5061205;28;21260;-62
2023/05/12 00:22:35;;;;;;;;;;;;;;;13.17;94.98;101595.94;5060383;28;19916;-63
2023/05/12 00:25:00;;;;;;;;;;;;;;;13.13;95.13;101587.44;5065956;28;19947;-62
2023/05/12 00:27:26;;;;;;;;;;;;;;;13.10;95.12;101585.13;5065417;28;20318;-60
2023/05/12 00:29:51;;;;;;;;;;;;;;;13.09;95.12;101580.78;5062658;28;19919;-60
2023/05/12 00:32:16;;;;;;;;;;;;;;;13.07;95.18;101579.28;5066817;28;19916;-61
2023/05/12 00:34:42;;;;;;;;;;;;;;;13.03;94.86;101582.31;5062705;28;19935;-61
2023/05/12 00:37:07;;;;;;;;;;;;;;;13.00;94.90;101579.94;5055137;28;19921;-60
2023/05/12 00:39:32;;;;;;;;;;;;;;;12.98;95.04;101581.13;5065569;28;20376;-60
2023/05/12 00:41:58;;;;;;;;;;;;;;;12.95;94.66;101584.97;5064009;28;20391;-60
2023/05/12 00:44:23;;;;;;;;;;;;;;;12.94;94.96;101577.13;5065812;28;19916;-62
2023/05/12 00:46:49;;;;;;;;;;;;;;;12.93;94.98;101576.28;5063120;28;19947;-61
2023/05/12 00:49:14;;;;;;;;;;;;;;;12.92;95.10;101576.47;5062724;28;19962;-61
2023/05/12 00:51:39;;;;;;;;;;;;;;;12.90;95.21;101573.97;5065182;28;20305;-61
2023/05/12 00:54:04;;;;;;;;;;;;;;;12.90;94.85;101575.81;5066077;28;19987;-60
2023/05/12 00:56:34;;;;;;;;;;;;;;;12.89;95.02;101572.31;5071415;28;19916;-60
2023/05/12 00:58:59;;;;;;;;;;;;;;;12.87;95.09;101571.63;5067073;28;19916;-60
2023/05/12 01:01:24;;;;;;;;;;;;;;;12.87;95.39;101568.97;5071474;28;19941;-60
2023/05/12 01:03:50;;;;;;;;;;;;;;;12.84;95.07;101568.47;5063521;28;20285;-59
2023/05/12 01:06:20;;;;;;;;;;;;;;;12.82;95.43;101563.31;5075869;28;19980;-60
2023/05/12 01:08:46;;;;;;;;;;;;;;;12.78;95.24;101567.31;5070599;28;19928;-60
2023/05/12 01:11:11;;;;;;;;;;;;;;;12.78;95.09;101558.50;5069817;28;19917;-61
2023/05/12 01:13:38;;;;;;;;;;;;;;;12.76;95.43;101565.81;5064020;28;19916;-60
2023/05/12 01:16:03;;;;;;;;;;;;;;;12.74;95.31;101563.31;5061993;28;19982;-61
2023/05/12 01:18:31;;;;;;;;;;;;;;;12.71;95.78;101567.13;5054841;28;19955;-61
2023/05/12 01:20:56;;;;;;;;;;;;;;;12.70;95.86;101557.47;5072269;28;20402;-61
2023/05/12 01:23:26;;;;;;;;;;;;;;;12.68;96.03;101562.13;5067034;28;19923;-61
2023/05/12 01:25:51;;;;;;;;;;;;;;;12.66;95.63;101564.13;5064801;28;19924;-60
2023/05/12 01:28:17;;;;;;;;;;;;;;;12.63;95.82;101556.47;5060649;28;19916;-60
2023/05/12 01:30:42;;;;;;;;;;;;;;;12.63;95.77;101560.97;5057066;28;19956;-61
2023/05/12 01:33:08;;;;;;;;;;;;;;;12.60;96.26;101554.16;5062179;28;19920;-62
2023/05/12 01:35:33;;;;;;;;;;;;;;;12.57;96.04;101554.50;5056427;28;20308;-62
2023/05/12 01:37:58;;;;;;;;;;;;;;;12.55;96.23;101550.31;5065504;28;20012;-60
2023/05/12 01:40:23;;;;;;;;;;;;;;;12.53;96.05;101547.81;5075296;28;20305;-61
2023/05/12 01:42:48;;;;;;;;;;;;;;;12.50;96.37;101547.34;5060957;28;19924;-61
2023/05/12 01:45:14;;;;;;;;;;;;;;;12.50;96.26;101547.34;5061222;28;19916;-61
2023/05/12 01:47:39;;;;;;;;;;;;;;;12.48;96.50;101547.50;5061119;28;20011;-60
2023/05/12 01:50:04;;;;;;;;;;;;;;;12.46;96.43;101546.00;5060927;28;20007;-60
2023/05/12 01:52:29;;;;;;;;;;;;;;;12.45;96.77;101549.66;5063166;28;19920;-60
2023/05/12 01:54:55;;;;;;;;;;;;;;;12.45;96.36;101544.34;5059061;28;20027;-60
2023/05/12 01:57:20;;;;;;;;;;;;;;;12.43;96.82;101549.81;5064658;28;19942;-60
2023/05/12 01:59:45;;;;;;;;;;;;;;;12.41;96.48;101543.81;5063569;28;19948;-61
2023/05/12 02:02:11;;;;;;;;;;;;;;;12.41;96.61;101541.16;5055696;28;19943;-60
2023/05/12 02:04:36;;;;;;;;;;;;;;;12.39;96.67;101543.97;5061529;28;19921;-61
2023/05/12 02:07:01;;;;;;;;;;;;;;;12.39;96.71;101532.50;5059376;28;19958;-61
2023/05/12 02:09:27;;;;;;;;;;;;;;;12.39;96.70;101532.50;5063730;28;20291;-61
2023/05/12 02:11:53;;;;;;;;;;;;;;;12.37;96.70;101529.16;5064911;28;19924;-60
2023/05/12 02:14:18;;;;;;;;;;;;;;;12.36;97.00;101527.50;5063023;28;20346;-60
2023/05/12 02:16:43;;;;;;;;;;;;;;;12.34;97.00;101532.16;5052543;28;19981;-61
2023/05/12 02:19:08;;;;;;;;;;;;;;;12.32;96.96;101524.34;5058003;28;19920;-60
2023/05/12 02:21:33;;;;;;;;;;;;;;;12.32;96.81;101528.81;5065973;28;19923;-60
2023/05/12 02:23:58;;;;;;;;;;;;;;;12.32;97.02;101526.16;5066467;28;19982;-60
2023/05/12 02:26:24;;;;;;;;;;;;;;;12.31;96.96;101522.66;5062705;28;19927;-59
2023/05/12 02:28:49;;;;;;;;;;;;;;;12.31;97.00;101524.50;5060758;28;19924;-61
2023/05/12 02:31:14;;;;;;;;;;;;;;;12.28;97.35;101524.84;5058581;28;19917;-60
2023/05/12 02:33:39;;;;;;;;;;;;;;;12.25;97.40;101515.34;5058412;28;19979;-60
2023/05/12 02:36:05;;;;;;;;;;;;;;;12.24;97.54;101512.84;5054772;28;19913;-60
2023/05/12 02:38:30;;;;;;;;;;;;;;;12.24;97.40;101518.16;5055834;28;19921;-60
2023/05/12 02:40:55;;;;;;;;;;;;;;;12.24;97.77;101515.50;5055428;28;19963;-61
2023/05/12 02:43:20;;;;;;;;;;;;;;;12.21;97.63;101510.50;5064249;28;19920;-60
2023/05/12 02:45:45;;;;;;;;;;;;;;;12.21;97.71;101516.66;5055858;28;20398;-61
2023/05/12 02:48:11;;;;;;;;;;;;;;;12.21;97.80;101515.84;5059797;28;20039;-60
2023/05/12 02:50:36;;;;;;;;;;;;;;;12.19;98.06;101509.84;5064083;28;19923;-60
2023/05/12 02:53:01;;;;;;;;;;;;;;;12.18;98.12;101503.69;5059977;28;19912;-60
2023/05/12 02:55:28;;;;;;;;;;;;;;;12.17;98.17;101502.03;5062819;28;19917;-60
2023/05/12 02:57:54;;;;;;;;;;;;;;;12.17;97.75;101495.88;5058021;28;20328;-60
2023/05/12 03:00:19;;;;;;;;;;;;;;;12.18;98.22;101500.19;5061161;28;20377;-60
2023/05/12 03:02:44;;;;;;;;;;;;;;;12.17;98.20;101490.53;5062805;28;19921;-60
2023/05/12 03:05:09;;;;;;;;;;;;;;;12.17;98.37;101493.22;5060178;28;20453;-61
2023/05/12 03:07:34;;;;;;;;;;;;;;;12.15;98.19;101485.38;5059714;28;19924;-60
2023/05/12 03:10:00;;;;;;;;;;;;;;;12.14;98.46;101485.53;5064134;28;20376;-60
2023/05/12 03:12:27;;;;;;;;;;;;;;;12.11;98.35;101486.69;5067413;28;19964;-60
2023/05/12 03:14:52;;;;;;;;;;;;;;;12.10;98.31;101483.19;5051132;28;20382;-60
2023/05/12 03:17:17;;;;;;;;;;;;;;;12.09;98.56;101488.69;5060963;28;19927;-60
2023/05/12 03:19:43;;;;;;;;;;;;;;;12.10;98.72;101490.34;5060547;28;19917;-60
2023/05/12 03:22:08;;;;;;;;;;;;;;;12.10;98.57;101479.69;5056185;28;19960;-60
2023/05/12 03:24:33;;;;;;;;;;;;;;;12.13;99.02;101481.19;5054075;28;20408;-60
2023/05/12 03:26:59;;;;;;;;;;;;;;;12.14;99.01;101480.19;5056721;28;19981;-60
2023/05/12 03:29:24;;;;;;;;;;;;;;;12.14;99.15;101488.19;5059892;28;20379;-60
2023/05/12 03:31:49;;;;;;;;;;;;;;;12.13;99.25;101482.03;5061752;28;19963;-60
2023/05/12 03:34:14;;;;;;;;;;;;;;;12.14;99.32;101474.88;5049903;28;20390;-60
2023/05/12 03:36:39;;;;;;;;;;;;;;;12.13;99.41;101476.69;5066340;28;19912;-61
2023/05/12 03:39:07;;;;;;;;;;;;;;;12.14;99.72;101472.22;5060358;28;19970;-60
2023/05/12 03:41:32;;;;;;;;;;;;;;;12.14;99.48;101477.53;5052559;28;19940;-60
2023/05/12 03:43:58;;;;;;;;;;;;;;;12.14;99.59;101474.88;5066830;28;19943;-60
2023/05/12 03:46:24;;;;;;;;;;;;;;;12.14;99.72;101470.38;5069262;28;19916;-60
2023/05/12 03:48:49;;;;;;;;;;;;;;;12.13;100.00;101471.38;5064133;28;20009;-60
2023/05/12 03:51:14;;;;;;;;;;;;;;;12.13;99.79;101474.03;5066638;28;20378;-60
2023/05/12 03:53:43;;;;;;;;;;;;;;;12.13;99.91;101476.69;5068105;28;19913;-60
2023/05/12 03:56:09;;;;;;;;;;;;;;;12.13;100.00;101468.72;5065666;28;20285;-60
2023/05/12 03:58:34;;;;;;;;;;;;;;;12.13;99.98;101471.38;5057886;28;19912;-60
2023/05/12 04:01:00;;;;;;;;;;;;;;;12.13;100.00;101470.53;5061199;28;19927;-61
2023/05/12 04:03:26;;;;;;;;;;;;;;;12.13;100.00;101466.06;5056913;28;20406;-60
2023/05/12 04:05:56;;;;;;;;;;;;;;;12.13;100.00;101466.06;5068778;28;19962;-60
2023/05/12 04:08:21;;;;;;;;;;;;;;;12.13;100.00;101465.22;5067230;28;19919;-59
2023/05/12 04:10:47;;;;;;;;;;;;;;;12.11;100.00;101473.38;5055625;28;20302;-60
2023/05/12 04:13:12;;;;;;;;;;;;;;;12.08;100.00;101468.38;5070582;28;19969;-60
2023/05/12 04:15:38;;;;;;;;;;;;;;;12.06;100.00;101467.72;5060871;28;19959;-60
2023/05/12 04:18:03;;;;;;;;;;;;;;;12.05;100.00;101466.88;5061026;28;19966;-60
2023/05/12 04:20:28;;;;;;;;;;;;;;;12.04;100.00;101470.53;5059486;28;19917;-60
2023/05/12 04:22:54;;;;;;;;;;;;;;;12.05;100.00;101452.75;5063606;28;19977;-60
2023/05/12 04:25:19;;;;;;;;;;;;;;;12.04;100.00;101467.88;5058998;28;19995;-60
2023/05/12 04:27:44;;;;;;;;;;;;;;;12.04;100.00;101467.88;5058242;28;19924;-60
2023/05/12 04:30:10;;;;;;;;;;;;;;;12.04;100.00;101469.72;5067873;28;20683;-60
2023/05/12 04:32:35;;;;;;;;;;;;;;;12.03;100.00;101465.38;5060754;28;19923;-60
2023/05/12 04:35:00;;;;;;;;;;;;;;;12.03;100.00;101465.38;5053660;28;19925;-60
2023/05/12 04:37:26;;;;;;;;;;;;;;;12.04;100.00;101457.22;5063289;28;19913;-60
2023/05/12 04:39:51;;;;;;;;;;;;;;;12.05;100.00;101463.38;5071186;28;19962;-61
2023/05/12 04:42:16;;;;;;;;;;;;;;;12.05;100.00;101464.22;5065834;28;19952;-61
2023/05/12 04:44:42;;;;;;;;;;;;;;;12.04;100.00;101462.56;5062658;28;20014;-61
2023/05/12 04:47:07;;;;;;;;;;;;;;;12.04;100.00;101467.88;5066809;28;20760;-60
2023/05/12 04:49:32;;;;;;;;;;;;;;;12.04;100.00;101470.53;5066192;28;19920;-61
2023/05/12 04:51:57;;;;;;;;;;;;;;;12.05;100.00;101466.06;5067858;28;20455;-59
2023/05/12 04:54:22;;;;;;;;;;;;;;;12.05;100.00;101469.53;5068118;28;19920;-60
2023/05/12 04:56:48;;;;;;;;;;;;;;;12.05;100.00;101474.88;5063938;28;19924;-59
2023/05/12 04:59:14;;;;;;;;;;;;;;;12.07;100.00;101482.69;5067785;28;19920;-60
2023/05/12 05:01:40;;;;;;;;;;;;;;;12.07;100.00;101475.53;5067969;28;19917;-61
2023/05/12 05:04:05;;;;;;;;;;;;;;;12.08;100.00;101471.03;5068265;28;19935;-60
2023/05/12 05:06:31;;;;;;;;;;;;;;;12.10;100.00;101480.53;5065991;28;19946;-60
2023/05/12 05:08:56;;;;;;;;;;;;;;;12.12;100.00;101487.50;5064159;28;19920;-60
2023/05/12 05:11:22;;;;;;;;;;;;;;;12.13;100.00;101486.53;5056773;28;19913;-61
2023/05/12 05:13:47;;;;;;;;;;;;;;;12.14;100.00;101491.69;5067528;28;20297;-60
2023/05/12 05:16:12;;;;;;;;;;;;;;;12.17;100.00;101495.88;5068111;28;20390;-60
2023/05/12 05:18:40;;;;;;;;;;;;;;;12.19;100.00;101494.72;5063966;28;19970;-60
2023/05/12 05:21:05;;;;;;;;;;;;;;;12.21;100.00;101505.19;5067713;28;20030;-60
2023/05/12 05:23:30;;;;;;;;;;;;;;;12.22;100.00;101496.19;5067514;28;20002;-60
2023/05/12 05:25:56;;;;;;;;;;;;;;;12.24;100.00;101496.88;5067771;28;20302;-60
2023/05/12 05:28:21;;;;;;;;;;;;;;;12.25;100.00;101495.88;5051239;28;19948;-60
2023/05/12 05:30:46;;;;;;;;;;;;;;;12.28;100.00;101501.69;5063016;28;19939;-61
2023/05/12 05:33:12;;;;;;;;;;;;;;;12.30;100.00;101501.53;5059025;28;19922;-60
2023/05/12 05:35:37;;;;;;;;;;;;;;;12.32;100.00;101504.84;5069458;28;20003;-61
2023/05/12 05:38:02;;;;;;;;;;;;;;;12.35;100.00;101512.50;5067528;28;19977;-61
2023/05/12 05:40:27;;;;;;;;;;;;;;;12.37;100.00;101502.53;5068693;28;19916;-61
2023/05/12 05:42:52;;;;;;;;;;;;;;;12.39;100.00;101506.69;5064740;28;19921;-61
2023/05/12 05:45:18;;;;;;;;;;;;;;;12.41;100.00;101517.16;5058901;28;19996;-61
2023/05/12 05:47:43;;;;;;;;;;;;;;;12.45;100.00;101515.03;5061488;28;19929;-61
2023/05/12 05:50:08;;;;;;;;;;;;;;;12.48;100.00;101512.88;5062666;28;19928;-62
2023/05/12 05:52:33;;;;;;;;;;;;;;;12.53;100.00;101515.03;5063076;28;19920;-61
2023/05/12 05:54:59;;;;;;;;;;;;;;;12.56;100.00;101520.84;5062109;28;19912;-61
2023/05/12 05:57:26;;;;;;;;;;;;;;;12.59;100.00;101525.00;5056919;28;19912;-59
2023/05/12 05:59:51;;;;;;;;;;;;;;;12.62;100.00;101522.84;5059607;28;19916;-60
2023/05/12 06:02:17;;;;;;;;;;;;;;;12.67;100.00;101531.16;5060471;28;19917;-60
2023/05/12 06:04:42;;;;;;;;;;;;;;;12.74;100.00;101535.84;5066414;28;19916;-60
2023/05/12 06:07:07;;;;;;;;;;;;;;;12.83;100.00;101533.00;5081093;28;19921;-59
2023/05/12 06:09:32;;;;;;;;;;;;;;;12.92;100.00;101531.13;5055920;28;19931;-61
2023/05/12 06:11:57;;;;;;;;;;;;;;;13.02;100.00;101529.97;5063605;28;19921;-60
2023/05/12 06:14:22;;;;;;;;;;;;;;;13.12;100.00;101534.28;5063836;28;20486;-61
2023/05/12 06:16:48;;;;;;;;;;;;;;;13.21;100.00;101536.78;5065218;28;19927;-59
2023/05/12 06:19:14;;;;;;;;;;;;;;;13.30;100.00;101540.28;5069020;28;19920;-60
2023/05/12 06:21:39;;;;;;;;;;;;;;;13.39;100.00;101543.75;5065319;28;19932;-61
2023/05/12 06:24:04;;;;;;;;;;;;;;;13.48;100.00;101548.03;5064402;28;19988;-61
2023/05/12 06:26:29;;;;;;;;;;;;;;;13.59;100.00;101553.03;5069683;28;19999;-60
2023/05/12 06:28:55;;;;;;;;;;;;;;;13.69;100.00;101555.47;5070167;28;19923;-61
2023/05/12 06:31:20;;;;;;;;;;;;;;;13.79;100.00;101554.25;5066714;28;19947;-59
2023/05/12 06:33:45;;;;;;;;;;;;;;;13.89;100.00;101554.06;5058649;28;19924;-61
2023/05/12 06:36:11;;;;;;;;;;;;;;;13.97;100.00;101556.69;5060266;28;20008;-61
2023/05/12 06:38:36;;;;;;;;;;;;;;;14.03;100.00;101558.66;5069826;28;19916;-61
2023/05/12 06:41:01;;;;;;;;;;;;;;;14.08;100.00;101568.78;5062507;28;19920;-61
2023/05/12 06:43:26;;;;;;;;;;;;;;;14.10;100.00;101566.78;5057522;28;20007;-61
2023/05/12 06:45:52;;;;;;;;;;;;;;;14.13;100.00;101569.09;5064347;28;20550;-61
2023/05/12 06:48:17;;;;;;;;;;;;;;;14.11;100.00;101565.78;5068972;28;19967;-61
2023/05/12 06:50:42;;;;;;;;;;;;;;;14.14;100.00;101578.78;5068675;28;19912;-60
2023/05/12 06:53:08;;;;;;;;;;;;;;;14.18;100.00;101572.09;5070425;28;19919;-61
2023/05/12 06:55:33;;;;;;;;;;;;;;;14.24;100.00;101574.06;5063492;28;19916;-61
2023/05/12 06:57:58;;;;;;;;;;;;;;;14.26;100.00;101575.53;5061333;28;19921;-61
2023/05/12 07:00:24;;;;;;;;;;;;;;;14.29;100.00;101582.38;5065442;28;19920;-62
2023/05/12 07:02:49;;;;;;;;;;;;;;;14.32;100.00;101587.34;5058012;28;19955;-62
2023/05/12 07:05:14;;;;;;;;;;;;;;;14.33;100.00;101586.34;5063707;28;19970;-62
2023/05/12 07:07:40;;;;;;;;;;;;;;;14.38;100.00;101591.16;5058577;28;19925;-61
2023/05/12 07:10:06;;;;;;;;;;;;;;;14.45;100.00;101582.28;5056097;28;19962;-62
2023/05/12 07:12:31;;;;;;;;;;;;;;;14.46;100.00;101593.81;5062037;28;19918;-60
2023/05/12 07:14:56;;;;;;;;;;;;;;;14.54;100.00;101591.09;5051009;28;19913;-62
2023/05/12 07:17:21;;;;;;;;;;;;;;;14.57;100.00;101604.09;5062371;28;19927;-61
2023/05/12 07:19:47;;;;;;;;;;;;;;;14.64;100.00;101598.84;5066851;28;19952;-62
2023/05/12 07:22:12;;;;;;;;;;;;;;;14.68;100.00;101601.00;5060592;28;19917;-62
2023/05/12 07:24:37;;;;;;;;;;;;;;;14.72;99.68;101599.63;5069117;28;19913;-61
2023/05/12 07:27:02;;;;;;;;;;;;;;;14.79;99.26;101603.25;5066895;28;19920;-62
2023/05/12 07:29:28;;;;;;;;;;;;;;;14.82;98.75;101602.06;5068522;28;19974;-61
2023/05/12 07:31:53;;;;;;;;;;;;;;;14.87;98.75;101592.50;5067466;28;20421;-62
2023/05/12 07:34:18;;;;;;;;;;;;;;;14.91;97.77;101592.97;5069101;28;19917;-61
2023/05/12 07:36:43;;;;;;;;;;;;;;;14.95;96.66;101609.47;5067700;28;19917;-60
2023/05/12 07:39:08;;;;;;;;;;;;;;;14.99;95.97;101589.38;5059571;28;20443;-61
2023/05/12 07:41:33;;;;;;;;;;;;;;;14.98;95.02;101609.94;5063747;28;19916;-62
2023/05/12 07:44:00;;;;;;;;;;;;;;;14.97;94.51;101604.78;5057684;28;19920;-62
2023/05/12 07:46:25;;;;;;;;;;;;;;;14.99;93.90;101600.91;5064568;28;19920;-60
2023/05/12 07:48:50;;;;;;;;;;;;;;;15.03;93.95;101610.22;5066608;28;19922;-62
2023/05/12 07:51:15;;;;;;;;;;;;;;;15.11;93.77;101615.53;5062724;28;19921;-63
2023/05/12 07:53:40;;;;;;;;;;;;;;;15.18;93.51;101618.31;5060795;28;19923;-62
2023/05/12 07:56:07;;;;;;;;;;;;;;;15.23;92.46;101615.06;5065537;28;19923;-61
2023/05/12 07:58:32;;;;;;;;;;;;;;;15.22;92.17;101611.56;5060839;28;19916;-61
2023/05/12 08:00:58;;;;;;;;;;;;;;;15.23;92.10;101615.06;5068064;28;19950;-62
2023/05/12 08:03:24;;;;;;;;;;;;;;;15.34;91.08;101610.13;5062334;28;19916;-62
2023/05/12 08:05:49;;;;;;;;;;;;;;;15.36;89.87;101615.28;5050741;28;19974;-62
2023/05/12 08:08:15;;;;;;;;;;;;;;;15.38;89.42;101618.63;5057343;28;19959;-62
2023/05/12 08:10:43;;;;;;;;;;;;;;;15.43;90.11;101616.22;5062684;28;20321;-61
2023/05/12 08:13:09;;;;;;;;;;;;;;;15.49;89.14;101620.84;5064929;28;19916;-62
2023/05/12 08:15:34;;;;;;;;;;;;;;;15.53;88.61;101621.28;5061118;28;19918;-62
2023/05/12 08:17:59;;;;;;;;;;;;;;;15.57;88.64;101625.25;5057909;28;19923;-62
2023/05/12 08:20:25;;;;;;;;;;;;;;;15.66;88.96;101627.72;5063304;28;19916;-62
2023/05/12 08:22:50;;;;;;;;;;;;;;;15.72;89.02;101626.97;5068812;28;20392;-62
2023/05/12 08:25:15;;;;;;;;;;;;;;;15.72;87.18;101623.47;5059138;28;19923;-62
2023/05/12 08:27:40;;;;;;;;;;;;;;;15.72;86.02;101621.63;5057318;28;19931;-60
2023/05/12 08:30:06;;;;;;;;;;;;;;;15.70;85.33;101628.16;5056694;28;19966;-62
2023/05/12 08:32:31;;;;;;;;;;;;;;;15.62;84.27;101633.63;5061440;28;20017;-62
2023/05/12 08:34:56;;;;;;;;;;;;;;;15.67;84.54;101641.94;5056591;28;19921;-62
2023/05/12 08:37:21;;;;;;;;;;;;;;;15.71;84.05;101630.66;5052845;28;19969;-62
2023/05/12 08:39:47;;;;;;;;;;;;;;;15.80;84.35;101639.44;5063727;28;19921;-62
2023/05/12 08:42:28;;;;;;;;;;;;;;;15.90;84.25;101641.81;5053738;28;20376;-62
2023/05/12 08:44:53;;;;;;;;;;;;;;;16.13;84.86;101647.88;5066077;28;19927;-62
2023/05/12 08:47:19;;;;;;;;;;;;;;;16.27;83.91;101655.09;5065287;28;19924;-63
2023/05/12 08:49:48;;;;;;;;;;;;;;;16.32;82.12;101647.31;5061864;28;20065;-64
2023/05/12 08:52:17;;;;;;;;;;;;;;;16.37;80.70;101649.41;5060897;28;19920;-64
2023/05/12 08:54:43;;;;;;;;;;;;;;;16.52;82.04;101663.63;5061100;28;20333;-62
2023/05/12 08:57:08;;;;;;;;;;;;;;;16.52;80.93;101652.91;5056132;28;19960;-63
2023/05/12 08:59:35;;;;;;;;;;;;;;;16.61;80.80;101658.97;5062283;28;20001;-64
2023/05/12 09:02:03;;;;;;;;;;;;;;;16.67;80.32;101663.59;5065208;28;19923;-63
2023/05/12 09:04:28;;;;;;;;;;;;;;;16.76;80.86;101662.44;5062136;28;20305;-64
2023/05/12 09:06:53;;;;;;;;;;;;;;;16.85;80.54;101664.00;5062531;28;20396;-64
2023/05/12 09:09:19;;;;;;;;;;;;;;;16.88;79.63;101650.19;5059590;28;19954;-64
2023/05/12 09:11:46;;;;;;;;;;;;;;;16.88;79.32;101662.78;5066640;28;20561;-63
2023/05/12 09:14:17;;;;;;;;;;;;;;;16.93;77.95;101663.03;5074706;28;19924;-64
2023/05/12 09:16:44;;;;;;;;;;;;;;;17.14;78.16;101672.94;5069372;28;19917;-64
2023/05/12 09:19:09;;;;;;;;;;;;;;;17.44;78.18;101670.91;5070627;28;19924;-64
2023/05/12 09:21:34;;;;;;;;;;;;;;;17.58;76.90;101678.84;5067231;28;19916;-64
2023/05/12 09:24:04;;;;;;;;;;;;;;;17.66;76.31;101661.78;5057608;28;20455;-64
2023/05/12 09:26:30;;;;;;;;;;;;;;;17.70;76.25;101667.59;5057113;28;19928;-64
2023/05/12 09:29:05;;;;;;;;;;;;;;;17.79;75.75;101669.94;5060438;28;19985;-64
2023/05/12 09:31:30;;;;;;;;;;;;;;;17.94;76.04;101665.28;5064168;28;19959;-62
2023/05/12 09:33:56;;;;;;;;;;;;;;;18.11;73.97;101664.91;5064232;28;19997;-63
2023/05/12 09:36:22;;;;;;;;;;;;;;;18.20;73.28;101656.47;5061646;28;20014;-64
2023/05/12 09:38:57;;;;;;;;;;;;;;;18.25;73.38;101666.66;5068561;28;20007;-63
2023/05/12 09:41:23;;;;;;;;;;;;;;;18.31;73.25;101675.78;5060925;28;19923;-64
2023/05/12 09:43:51;;;;;;;;;;;;;;;18.23;71.93;101669.53;5060844;28;19916;-63
2023/05/12 09:46:16;;;;;;;;;;;;;;;18.20;73.05;101667.22;5068118;28;19916;-63
2023/05/12 09:48:41;;;;;;;;;;;;;;;18.32;72.84;101680.94;5056427;28;19924;-63
2023/05/12 09:51:08;;;;;;;;;;;;;;;18.33;72.30;101665.63;5069244;28;19920;-64
2023/05/12 09:53:39;;;;;;;;;;;;;;;18.36;73.09;101676.00;5069772;28;19912;-63
2023/05/12 09:56:05;;;;;;;;;;;;;;;18.53;73.96;101677.31;5071530;28;19912;-64
2023/05/12 09:58:30;;;;;;;;;;;;;;;18.61;72.10;101682.50;5064614;28;19970;-64
2023/05/12 10:00:56;;;;;;;;;;;;;;;18.55;71.17;101681.44;5069778;28;19917;-64
2023/05/12 10:03:23;;;;;;;;;;;;;;;18.46;70.52;101665.66;5070189;28;19916;-64
2023/05/12 10:05:50;;;;;;;;;;;;;;;18.52;71.03;101681.84;5066347;28;19916;-64
2023/05/12 10:08:20;;;;;;;;;;;;;;;18.57;70.09;101683.94;5070096;28;19912;-64
2023/05/12 10:10:47;;;;;;;;;;;;;;;18.61;69.19;101671.72;5069194;28;20413;-65
2023/05/12 10:13:13;;;;;;;;;;;;;;;18.59;68.37;101692.63;5069612;28;20404;-65
2023/05/12 10:15:38;;;;;;;;;;;;;;;18.56;67.72;101688.50;5067955;28;19924;-64
2023/05/12 10:18:03;;;;;;;;;;;;;;;18.69;67.34;101692.25;5057979;28;19917;-64
2023/05/12 10:20:29;;;;;;;;;;;;;;;18.84;67.46;101691.06;5056604;28;19925;-64
2023/05/12 10:22:56;;;;;;;;;;;;;;;18.90;66.35;101686.72;5064417;28;19970;-64
2023/05/12 10:25:22;;;;;;;;;;;;;;;18.94;66.21;101684.44;5061298;28;19916;-64
2023/05/12 10:27:47;;;;;;;;;;;;;;;18.90;64.83;101691.28;5057666;28;19917;-64
2023/05/12 10:30:13;;;;;;;;;;;;;;;18.96;65.42;101696.66;5064223;28;19916;-64
2023/05/12 10:32:39;;;;;;;;;;;;;;;19.07;65.52;101703.31;5064065;28;20451;-64
2023/05/12 10:35:08;;;;;;;;;;;;;;;19.01;64.82;101696.88;5060907;28;19916;-64
2023/05/12 10:37:34;;;;;;;;;;;;;;;18.96;64.52;101695.84;5057666;28;19965;-64
2023/05/12 10:40:01;;;;;;;;;;;;;;;19.08;65.20;101696.88;5067521;28;20012;-64
2023/05/12 10:42:35;;;;;;;;;;;;;;;19.08;65.38;101702.25;5067318;28;19920;-64
2023/05/12 10:45:03;;;;;;;;;;;;;;;19.11;64.55;101701.88;5069006;28;19920;-63
2023/05/12 10:47:37;;;;;;;;;;;;;;;19.03;64.08;101693.97;5068428;28;19958;-64
2023/05/12 10:50:02;;;;;;;;;;;;;;;18.92;63.39;101700.81;5053095;28;19928;-64
2023/05/12 10:52:28;;;;;;;;;;;;;;;18.88;63.95;101708.47;5061115;28;19920;-64
2023/05/12 10:54:58;;;;;;;;;;;;;;;18.89;63.75;101706.59;5071783;28;20005;-63
2023/05/12 10:57:24;;;;;;;;;;;;;;;18.90;64.90;101710.13;5059754;28;19916;-64
2023/05/12 10:59:50;;;;;;;;;;;;;;;18.92;64.29;101711.56;5062970;28;19924;-63
2023/05/12 11:02:16;;;;;;;;;;;;;;;18.88;63.53;101713.84;5060555;28;19921;-64
2023/05/12 11:04:49;;;;;;;;;;;;;;;18.85;63.51;101714.25;5065788;28;19924;-64
2023/05/12 11:07:15;;;;;;;;;;;;;;;18.80;63.46;101716.75;5060636;28;19920;-63
2023/05/12 11:09:42;;;;;;;;;;;;;;;18.73;63.71;101715.88;5064051;28;19943;-64
2023/05/12 11:12:08;;;;;;;;;;;;;;;18.73;63.52;101717.72;5063871;28;19966;-63
2023/05/12 11:14:33;;;;;;;;;;;;;;;18.67;63.86;101727.44;5062513;28;19921;-64
2023/05/12 11:16:59;;;;;;;;;;;;;;;18.60;63.64;101718.50;5056031;28;19920;-63
2023/05/12 11:19:24;;;;;;;;;;;;;;;18.55;63.40;101723.66;5056612;28;20034;-64
2023/05/12 11:21:49;;;;;;;;;;;;;;;18.59;63.51;101724.91;5061344;28;19951;-64
2023/05/12 11:24:15;;;;;;;;;;;;;;;18.56;63.91;101731.53;5063879;28;19916;-63
2023/05/12 11:26:41;;;;;;;;;;;;;;;18.62;63.67;101735.31;5066422;28;19917;-63
2023/05/12 11:29:06;;;;;;;;;;;;;;;18.64;63.81;101727.84;5064984;28;19917;-63
2023/05/12 11:31:31;;;;;;;;;;;;;;;18.57;62.89;101732.34;5065732;28;20453;-63
2023/05/12 11:34:03;;;;;;;;;;;;;;;18.45;62.80;101736.63;5068628;28;19919;-63
2023/05/12 11:36:34;;;;;;;;;;;;;;;18.41;63.33;101741.59;5068044;28;19919;-63
2023/05/12 11:38:59;;;;;;;;;;;;;;;18.43;63.30;101741.38;5060859;28;20320;-63
2023/05/12 11:41:25;;;;;;;;;;;;;;;18.41;63.35;101740.75;5066330;28;20007;-64
2023/05/12 11:43:50;;;;;;;;;;;;;;;18.35;62.57;101739.72;5067902;28;20538;-63
2023/05/12 11:46:42;;;;;;;;;;;;;;;18.41;62.15;101741.59;5066976;28;19923;-64
2023/05/12 11:49:13;;;;;;;;;;;;;;;18.61;62.80;101738.16;5041835;28;19920;-64
2023/05/12 11:51:42;;;;;;;;;;;;;;;18.80;62.86;101737.44;5057389;28;19977;-63
2023/05/12 11:54:07;;;;;;;;;;;;;;;18.99;62.98;101738.50;5064432;28;19921;-64
2023/05/12 11:56:33;;;;;;;;;;;;;;;19.14;62.17;101728.38;5068698;28;20878;-63
2023/05/12 11:58:58;;;;;;;;;;;;;;;19.30;60.92;101741.44;5064135;28;19935;-63
2023/05/12 12:01:24;;;;;;;;;;;;;;;19.45;59.91;101734.00;5061106;28;19924;-62
2023/05/12 12:03:51;;;;;;;;;;;;;;;19.54;59.01;101739.22;5064787;28;20497;-64
2023/05/12 12:06:17;;;;;;;;;;;;;;;19.61;58.38;101748.09;5068253;28;19917;-64
2023/05/12 12:09:01;;;;;;;;;;;;;;;19.75;58.29;101752.47;5062843;28;19965;-62
2023/05/12 12:11:27;;;;;;;;;;;;;;;19.83;58.05;101748.72;5063392;28;19960;-62
2023/05/12 12:13:56;;;;;;;;;;;;;;;19.91;58.31;101753.88;5063772;28;20401;-63
2023/05/12 12:16:22;;;;;;;;;;;;;;;20.02;57.48;101758.66;5064189;28;19916;-63
2023/05/12 12:18:47;;;;;;;;;;;;;;;20.12;57.97;101753.66;5070017;28;19916;-62
2023/05/12 12:21:12;;;;;;;;;;;;;;;20.28;57.55;101752.38;5066266;28;19939;-63
2023/05/12 12:23:38;;;;;;;;;;;;;;;20.30;56.82;101761.06;5062500;28;19999;-63
2023/05/12 12:26:03;;;;;;;;;;;;;;;20.36;56.90;101752.13;5062601;28;19959;-63